createdAt,value
2022-10-19T00:02:17.500Z,100966.00
2022-10-19T00:04:44.596Z,100975.44
2022-10-19T00:07:10.848Z,100962.94
2022-10-19T00:09:37.103Z,100979.31
2022-10-19T00:12:03.735Z,100974.25
2022-10-19T00:14:29.971Z,100975.09
2022-10-19T00:16:58.061Z,100972.22
2022-10-19T00:19:27.289Z,100969.53
2022-10-19T00:21:53.711Z,100967.53
2022-10-19T00:24:20.510Z,100951.81
2022-10-19T00:26:47.286Z,100983.38
2022-10-19T00:29:14.295Z,100965.56
2022-10-19T00:31:41.186Z,100973.75
2022-10-19T00:34:07.758Z,100970.19
2022-10-19T00:36:37.742Z,100952.50
2022-10-19T00:39:06.093Z,100978.97
2022-10-19T00:41:34.148Z,100964.38
2022-10-19T00:44:01.778Z,100965.25
2022-10-19T00:46:30.523Z,100960.94
2022-10-19T00:49:10.899Z,100964.81
2022-10-19T00:51:40.088Z,100958.72
2022-10-19T00:54:07.059Z,100953.62
2022-10-19T00:56:33.794Z,100945.78
2022-10-19T00:59:03.527Z,100951.84
2022-10-19T01:01:31.394Z,100922.28
2022-10-19T01:03:57.752Z,100942.63
2022-10-19T01:06:24.948Z,100938.53
2022-10-19T01:08:51.472Z,100933.53
2022-10-19T01:11:43.462Z,100942.53
2022-10-19T01:14:31.407Z,100937.59
2022-10-19T01:17:19.223Z,100944.69
2022-10-19T01:20:08.148Z,100930.19
2022-10-19T01:22:51.655Z,100933.25
2022-10-19T01:26:00.207Z,100919.13
2022-10-19T01:28:46.027Z,100922.75
2022-10-19T01:31:38.979Z,100915.25
2022-10-19T01:34:05.080Z,100919.88
2022-10-19T01:36:34.479Z,100907.22
2022-10-19T01:39:12.214Z,100901.75
2022-10-19T01:42:00.399Z,100908.50
2022-10-19T01:44:40.140Z,100908.66
2022-10-19T01:47:10.403Z,100904.72
2022-10-19T01:49:57.214Z,100882.97
2022-10-19T01:52:25.575Z,100905.66
2022-10-19T01:54:57.444Z,100900.78
2022-10-19T01:57:33.191Z,100889.81
2022-10-19T02:00:05.099Z,100885.88
2022-10-19T02:02:40.530Z,100885.19
2022-10-19T02:05:07.870Z,100861.56
2022-10-19T02:07:34.904Z,100867.03
2022-10-19T02:10:01.292Z,100876.47
2022-10-19T02:12:28.988Z,100872.25
2022-10-19T02:14:58.424Z,100875.69
2022-10-19T02:17:29.002Z,100882.78
2022-10-19T02:19:55.700Z,100899.38
2022-10-19T02:22:22.092Z,100901.22
2022-10-19T02:24:48.330Z,100903.91
2022-10-19T02:27:14.897Z,100886.38
2022-10-19T02:29:41.340Z,100898.09
2022-10-19T02:32:08.247Z,100898.59
2022-10-19T02:34:35.522Z,100898.41
2022-10-19T02:37:01.941Z,100897.31
2022-10-19T02:39:28.361Z,100904.81
2022-10-19T02:42:04.454Z,100918.13
2022-10-19T02:44:47.214Z,100937.41
2022-10-19T02:47:18.339Z,100935.94
2022-10-19T02:49:44.920Z,100934.50
2022-10-19T02:52:12.840Z,100933.91
2022-10-19T02:54:40.473Z,100945.87
2022-10-19T02:57:18.570Z,100943.34
2022-10-19T02:59:45.251Z,100930.12
2022-10-19T03:02:11.935Z,100926.34
2022-10-19T03:04:38.275Z,100927.22
2022-10-19T03:07:04.829Z,100933.72
2022-10-19T03:09:31.066Z,100919.97
2022-10-19T03:11:57.331Z,100933.47
2022-10-19T03:14:23.928Z,100924.44
2022-10-19T03:16:50.180Z,100916.94
2022-10-19T03:19:16.439Z,100931.25
2022-10-19T03:21:42.974Z,100925.13
2022-10-19T03:24:09.233Z,100908.75
2022-10-19T03:26:35.540Z,100936.72
2022-10-19T03:29:02.094Z,100934.12
2022-10-19T03:31:28.327Z,100931.25
2022-10-19T03:33:54.577Z,100942.41
2022-10-19T03:36:29.424Z,100932.69
2022-10-19T03:38:57.729Z,100921.91
2022-10-19T03:41:26.509Z,100922.06
2022-10-19T03:43:52.936Z,100922.81
2022-10-19T03:46:19.901Z,100929.13
2022-10-19T03:48:46.932Z,100930.81
2022-10-19T03:51:15.631Z,100936.81
2022-10-19T03:53:42.351Z,100935.72
2022-10-19T03:56:12.993Z,100908.81
2022-10-19T03:58:40.258Z,100916.13
2022-10-19T04:01:09.140Z,100900.12
2022-10-19T04:06:15.833Z,100913.31
2022-10-19T04:08:45.279Z,100914.41
2022-10-19T04:11:14.147Z,100921.91
2022-10-19T04:13:40.734Z,100916.38
2022-10-19T04:16:07.790Z,100922.22
2022-10-19T04:18:34.203Z,100916.78
2022-10-19T04:21:03.753Z,100915.56
2022-10-19T04:23:32.481Z,100917.94
2022-10-19T04:26:07.465Z,100911.69
2022-10-19T04:28:34.684Z,100884.28
2022-10-19T04:31:05.317Z,100886.38
2022-10-19T04:33:32.499Z,100888.50
2022-10-19T04:36:03.607Z,100897.09
2022-10-19T04:38:30.458Z,100889.53
2022-10-19T04:41:01.490Z,100898.13
2022-10-19T04:43:28.013Z,100901.78
2022-10-19T04:45:54.274Z,100910.38
2022-10-19T04:48:20.509Z,100911.97
2022-10-19T04:50:47.048Z,100915.91
2022-10-19T04:53:19.336Z,100924.87
2022-10-19T04:55:45.624Z,100918.53
2022-10-19T04:58:12.191Z,100913.88
2022-10-19T05:00:38.905Z,100910.41
2022-10-19T05:03:05.255Z,100907.03
2022-10-19T05:05:33.002Z,100913.88
2022-10-19T05:07:59.215Z,100925.06
2022-10-19T05:10:25.447Z,100930.12
2022-10-19T05:12:52.176Z,100938.75
2022-10-19T05:15:18.409Z,100935.37
2022-10-19T05:17:44.627Z,100913.12
2022-10-19T05:20:11.487Z,100934.06
2022-10-19T05:22:40.879Z,100937.44
2022-10-19T05:25:07.628Z,100931.47
2022-10-19T05:27:34.529Z,100925.09
2022-10-19T05:30:00.896Z,100922.84
2022-10-19T05:32:28.140Z,100914.78
2022-10-19T05:34:54.661Z,100909.53
2022-10-19T05:37:21.683Z,100910.31
2022-10-19T05:39:47.942Z,100910.22
2022-10-19T05:42:14.456Z,100902.47
2022-10-19T05:44:40.878Z,100897.87
2022-10-19T05:47:07.341Z,100896.09
2022-10-19T05:49:33.868Z,100881.50
2022-10-19T05:52:00.258Z,100896.66
2022-10-19T05:54:28.519Z,100860.75
2022-10-19T05:56:55.671Z,100907.06
2022-10-19T05:59:22.239Z,100906.50
2022-10-19T06:01:49.233Z,100919.84
2022-10-19T06:06:43.586Z,100901.50
2022-10-19T06:09:10.475Z,100931.19
2022-10-19T06:11:39.353Z,100927.53
2022-10-19T06:14:08.651Z,100936.31
2022-10-19T06:16:35.602Z,100931.84
2022-10-19T06:19:02.185Z,100921.19
2022-10-19T06:21:30.148Z,100936.25
2022-10-19T06:23:58.257Z,100942.31
2022-10-19T06:26:25.545Z,100931.91
2022-10-19T06:28:52.174Z,100937.09
2022-10-19T06:31:18.407Z,100940.81
2022-10-19T06:33:48.626Z,100929.25
2022-10-19T06:36:21.284Z,100942.69
2022-10-19T06:38:48.514Z,100934.66
2022-10-19T06:41:14.768Z,100937.09
2022-10-19T06:43:43.057Z,100934.16
2022-10-19T06:46:12.070Z,100919.47
2022-10-19T06:48:38.695Z,100932.75
2022-10-19T06:51:07.469Z,100921.53
2022-10-19T06:53:35.504Z,100931.87
2022-10-19T06:56:03.503Z,100923.50
2022-10-19T06:58:30.989Z,100922.09
2022-10-19T07:01:01.198Z,100924.03
2022-10-19T07:03:28.820Z,100903.19
2022-10-19T07:05:56.456Z,100924.47
2022-10-19T07:08:23.759Z,100923.66
2022-10-19T07:10:54.283Z,100929.13
2022-10-19T07:13:21.599Z,100927.78
2022-10-19T07:15:48.612Z,100924.94
2022-10-19T07:18:15.300Z,100936.44
2022-10-19T07:20:41.825Z,100939.66
2022-10-19T07:23:08.452Z,100946.19
2022-10-19T07:25:36.239Z,100920.75
2022-10-19T07:28:02.488Z,100947.44
2022-10-19T07:30:29.026Z,100953.97
2022-10-19T07:32:55.304Z,100950.38
2022-10-19T07:35:21.535Z,100954.06
2022-10-19T07:37:48.101Z,100958.16
2022-10-19T07:40:14.368Z,100945.66
2022-10-19T07:42:40.640Z,100963.47
2022-10-19T07:45:07.517Z,100952.06
2022-10-19T07:47:34.545Z,100957.91
2022-10-19T07:50:00.982Z,100955.13
2022-10-19T07:52:28.078Z,100944.84
2022-10-19T07:54:56.283Z,100937.34
2022-10-19T07:57:22.579Z,100944.16
2022-10-19T07:59:49.087Z,100939.88
2022-10-19T08:02:17.225Z,100942.56
2022-10-19T08:05:02.781Z,100936.09
2022-10-19T08:07:33.476Z,100922.75
2022-10-19T08:10:00.021Z,100931.78
2022-10-19T08:12:26.426Z,100934.28
2022-10-19T08:14:53.954Z,100935.41
2022-10-19T08:17:20.578Z,100929.16
2022-10-19T08:19:47.113Z,100919.31
2022-10-19T08:22:13.611Z,100916.75
2022-10-19T08:24:40.511Z,100914.34
2022-10-19T08:27:06.849Z,100894.53
2022-10-19T08:29:33.555Z,100921.13
2022-10-19T08:32:00.421Z,100907.97
2022-10-19T08:34:29.003Z,100894.53
2022-10-19T08:36:55.321Z,100908.78
2022-10-19T08:39:21.968Z,100907.56
2022-10-19T08:42:19.640Z,100917.63
2022-10-19T08:45:09.453Z,100926.81
2022-10-19T08:48:07.813Z,100916.66
2022-10-19T08:50:40.025Z,100928.22
2022-10-19T08:53:24.230Z,100933.06
2022-10-19T08:55:59.812Z,100924.16
2022-10-19T08:58:41.942Z,100923.03
2022-10-19T09:01:46.876Z,100927.97
2022-10-19T09:04:42.122Z,100926.56
2022-10-19T09:07:29.297Z,100931.44
2022-10-19T09:10:05.444Z,100937.84
2022-10-19T09:12:38.112Z,100928.28
2022-10-19T09:15:08.029Z,100932.19
2022-10-19T09:17:34.960Z,100920.69
2022-10-19T09:20:17.615Z,100928.00
2022-10-19T09:22:44.706Z,100906.91
2022-10-19T09:25:21.020Z,100914.59
2022-10-19T09:27:49.540Z,100915.59
2022-10-19T09:30:19.302Z,100911.37
2022-10-19T09:32:46.230Z,100895.69
2022-10-19T09:35:32.675Z,100909.53
2022-10-19T09:37:59.558Z,100913.69
2022-10-19T09:40:28.883Z,100906.97
2022-10-19T09:42:59.351Z,100904.94
2022-10-19T09:45:49.851Z,100917.66
2022-10-19T09:48:44.716Z,100905.72
2022-10-19T09:51:14.296Z,100903.75
2022-10-19T09:53:55.698Z,100880.03
2022-10-19T09:56:25.007Z,100888.91
2022-10-19T09:58:57.228Z,100906.53
2022-10-19T10:01:40.179Z,100906.97
2022-10-19T10:04:18.745Z,100905.06
2022-10-19T10:06:49.466Z,100894.31
2022-10-19T10:09:22.644Z,100898.00
2022-10-19T10:11:50.924Z,100903.00
2022-10-19T10:14:25.048Z,100890.53
2022-10-19T10:17:14.639Z,100887.03
2022-10-19T10:20:10.853Z,100885.28
2022-10-19T10:22:37.746Z,100865.88
2022-10-19T10:25:15.996Z,100871.16
2022-10-19T10:27:42.233Z,100877.63
2022-10-19T10:30:16.145Z,100872.50
2022-10-19T10:32:51.452Z,100869.34
2022-10-19T10:35:21.179Z,100879.38
2022-10-19T10:37:48.164Z,100857.59
2022-10-19T10:40:28.242Z,100881.37
2022-10-19T10:42:56.997Z,100881.00
2022-10-19T10:45:28.891Z,100868.97
2022-10-19T10:47:55.509Z,100879.62
2022-10-19T10:50:31.537Z,100855.41
2022-10-19T10:53:01.015Z,100864.53
2022-10-19T10:55:27.589Z,100860.16
2022-10-19T10:58:11.149Z,100861.97
2022-10-19T11:00:40.266Z,100867.03
2022-10-19T11:03:36.130Z,100843.22
2022-10-19T11:06:05.463Z,100859.81
2022-10-19T11:08:41.395Z,100856.09
2022-10-19T11:11:20.971Z,100848.59
2022-10-19T11:14:18.734Z,100849.22
2022-10-19T11:16:47.024Z,100851.69
2022-10-19T11:19:22.885Z,100839.88
2022-10-19T11:22:08.341Z,100850.59
2022-10-19T11:25:05.662Z,100853.84
2022-10-19T11:28:16.535Z,100859.00
2022-10-19T11:30:55.809Z,100854.06
2022-10-19T11:36:51.175Z,100845.31
2022-10-19T11:39:27.623Z,100836.28
2022-10-19T11:42:05.663Z,100847.13
2022-10-19T11:44:35.038Z,100837.22
2022-10-19T11:47:07.304Z,100846.53
2022-10-19T11:49:39.707Z,100833.22
2022-10-19T11:52:19.939Z,100835.09
2022-10-19T11:55:24.012Z,100826.78
2022-10-19T11:58:11.320Z,100828.19
2022-10-19T12:00:44.983Z,100835.56
2022-10-19T12:03:43.694Z,100831.69
2022-10-19T12:06:44.580Z,100821.56
2022-10-19T12:09:18.575Z,100821.13
2022-10-19T12:12:18.507Z,100799.16
2022-10-19T12:14:46.564Z,100811.16
2022-10-19T12:17:17.188Z,100817.75
2022-10-19T12:19:48.034Z,100808.94
2022-10-19T12:22:22.467Z,100813.69
2022-10-19T12:24:50.820Z,100806.69
2022-10-19T12:27:21.704Z,100802.69
2022-10-19T12:29:48.677Z,100792.13
2022-10-19T12:32:17.153Z,100801.12
2022-10-19T12:34:52.352Z,100801.06
2022-10-19T12:37:50.195Z,100806.22
2022-10-19T12:40:31.191Z,100809.50
2022-10-19T12:43:09.703Z,100786.91
2022-10-19T12:45:54.864Z,100805.53
2022-10-19T12:48:22.089Z,100808.56
2022-10-19T12:50:48.531Z,100795.81
2022-10-19T12:56:02.178Z,100792.94
2022-10-19T12:58:35.110Z,100794.47
2022-10-19T13:01:03.909Z,100793.47
2022-10-19T13:03:38.288Z,100791.22
2022-10-19T13:06:18.752Z,100794.25
2022-10-19T13:08:55.908Z,100804.94
2022-10-19T13:11:23.027Z,100812.81
2022-10-19T13:14:00.044Z,100804.72
2022-10-19T13:16:29.571Z,100814.97
2022-10-19T13:19:14.212Z,100797.91
2022-10-19T13:22:22.720Z,100802.97
2022-10-19T13:25:17.204Z,100798.84
2022-10-19T13:27:44.618Z,100801.81
2022-10-19T13:30:39.323Z,100781.16
2022-10-19T13:33:24.807Z,100801.62
2022-10-19T13:36:09.850Z,100807.75
2022-10-19T13:38:39.285Z,100786.53
2022-10-19T13:41:08.924Z,100800.72
2022-10-19T13:43:53.661Z,100792.25
2022-10-19T13:46:23.229Z,100801.81
2022-10-19T13:49:04.920Z,100796.34
2022-10-19T13:52:03.234Z,100808.72
2022-10-19T13:54:49.451Z,100791.84
2022-10-19T13:57:43.666Z,100798.69
2022-10-19T14:00:19.735Z,100796.56
2022-10-19T14:03:23.915Z,100802.22
2022-10-19T14:06:15.092Z,100799.13
2022-10-19T14:09:24.874Z,100809.97
2022-10-19T14:11:52.939Z,100803.25
2022-10-19T14:14:22.176Z,100800.44
2022-10-19T14:17:03.059Z,100800.25
2022-10-19T14:19:42.234Z,100799.37
2022-10-19T14:22:23.155Z,100801.28
2022-10-19T14:24:49.698Z,100798.88
2022-10-19T14:27:23.013Z,100801.09
2022-10-19T14:29:51.417Z,100792.28
2022-10-19T14:32:19.251Z,100792.44
2022-10-19T14:34:47.526Z,100790.59
2022-10-19T14:37:25.082Z,100795.53
2022-10-19T14:40:03.813Z,100797.72
2022-10-19T14:42:45.076Z,100791.12
2022-10-19T14:45:21.041Z,100775.91
2022-10-19T14:48:07.474Z,100778.94
2022-10-19T14:50:41.650Z,100783.97
2022-10-19T14:53:35.027Z,100780.94
2022-10-19T14:56:06.729Z,100798.00
2022-10-19T14:58:39.347Z,100777.62
2022-10-19T15:01:06.044Z,100775.13
2022-10-19T15:03:33.245Z,100771.19
2022-10-19T15:06:03.047Z,100771.69
2022-10-19T15:08:37.806Z,100788.44
2022-10-19T15:11:06.212Z,100794.31
2022-10-19T15:13:35.311Z,100797.28
2022-10-19T15:16:01.665Z,100806.87
2022-10-19T15:18:49.293Z,100817.31
2022-10-19T15:21:20.000Z,100813.63
2022-10-19T15:23:50.931Z,100829.31
2022-10-19T15:26:19.523Z,100820.69
2022-10-19T15:28:45.972Z,100817.34
2022-10-19T15:31:15.577Z,100813.37
2022-10-19T15:33:48.113Z,100811.69
2022-10-19T15:36:17.517Z,100817.22
2022-10-19T15:38:45.679Z,100814.59
2022-10-19T15:41:17.707Z,100821.66
2022-10-19T15:43:47.562Z,100837.37
2022-10-19T15:46:13.855Z,100849.00
2022-10-19T15:48:55.392Z,100841.66
2022-10-19T15:51:25.204Z,100840.81
2022-10-19T15:54:05.181Z,100846.09
2022-10-19T15:56:34.841Z,100840.81
2022-10-19T15:59:03.145Z,100865.38
2022-10-19T16:01:32.388Z,100817.00
2022-10-19T16:03:59.639Z,100856.53
2022-10-19T16:06:28.144Z,100855.19
2022-10-19T16:08:54.544Z,100862.03
2022-10-19T16:11:23.075Z,100866.44
2022-10-19T16:13:49.326Z,100862.62
2022-10-19T16:16:29.918Z,100868.44
2022-10-19T16:18:56.847Z,100874.31
2022-10-19T16:21:28.800Z,100878.25
2022-10-19T16:23:55.107Z,100881.03
2022-10-19T16:26:22.104Z,100861.09
2022-10-19T16:28:48.771Z,100883.03
2022-10-19T16:31:15.949Z,100889.38
2022-10-19T16:33:42.477Z,100902.66
2022-10-19T16:36:09.216Z,100899.25
2022-10-19T16:38:35.761Z,100920.94
2022-10-19T16:41:08.316Z,100927.38
2022-10-19T16:43:35.497Z,100924.09
2022-10-19T16:46:02.648Z,100915.59
2022-10-19T16:48:28.926Z,100928.13
2022-10-19T16:51:07.400Z,100928.34
2022-10-19T16:53:34.769Z,100934.56
2022-10-19T16:56:09.823Z,100914.22
2022-10-19T16:58:37.237Z,100921.41
2022-10-19T17:01:18.048Z,100926.16
2022-10-19T17:03:45.895Z,100932.63
2022-10-19T17:06:12.743Z,100910.56
2022-10-19T17:09:14.243Z,100914.38
2022-10-19T17:11:32.051Z,100931.72
2022-10-19T17:14:00.575Z,100930.03
2022-10-19T17:16:28.813Z,100941.63
2022-10-19T17:18:56.803Z,100946.25
2022-10-19T17:21:25.974Z,100940.28
2022-10-19T17:23:57.979Z,100942.19
2022-10-19T17:26:32.256Z,100936.16
2022-10-19T17:28:59.391Z,100940.62
2022-10-19T17:31:26.388Z,100921.50
2022-10-19T17:33:53.233Z,100940.19
2022-10-19T17:36:28.513Z,100941.25
2022-10-19T17:39:00.588Z,100948.66
2022-10-19T17:41:28.216Z,100940.84
2022-10-19T17:43:55.177Z,100947.91
2022-10-19T17:46:23.682Z,100940.69
2022-10-19T17:48:50.449Z,100956.97
2022-10-19T17:51:27.113Z,100945.19
2022-10-19T17:53:55.856Z,100959.81
2022-10-19T17:56:22.275Z,100959.00
2022-10-19T17:58:49.204Z,100970.03
2022-10-19T18:01:17.262Z,100971.19
2022-10-19T18:03:44.039Z,100955.72
2022-10-19T18:06:19.548Z,100946.63
2022-10-19T18:08:51.639Z,100951.44
2022-10-19T18:11:23.445Z,100963.31
2022-10-19T18:13:51.286Z,100971.72
2022-10-19T18:16:26.552Z,100974.97
2022-10-19T18:18:55.933Z,100983.25
2022-10-19T18:21:25.325Z,100990.63
2022-10-19T18:23:53.382Z,100987.56
2022-10-19T18:26:22.894Z,100977.88
2022-10-19T18:28:50.387Z,100992.13
2022-10-19T18:31:19.518Z,100983.06
2022-10-19T18:33:47.631Z,100995.38
2022-10-19T18:36:14.168Z,100991.25
2022-10-19T18:38:40.472Z,100988.09
2022-10-19T18:41:11.494Z,100990.72
2022-10-19T18:43:41.506Z,100994.19
2022-10-19T18:46:09.118Z,100996.81
2022-10-19T18:48:37.315Z,100995.25
2022-10-19T18:51:05.770Z,100989.22
2022-10-19T18:53:32.611Z,100990.53
2022-10-19T18:56:04.930Z,100990.31
2022-10-19T18:58:32.003Z,101011.09
2022-10-19T19:01:11.827Z,101011.94
2022-10-19T19:03:40.152Z,101011.28
2022-10-19T19:06:08.970Z,101013.16
2022-10-19T19:08:35.420Z,101000.38
2022-10-19T19:11:18.404Z,101024.72
2022-10-19T19:13:49.935Z,101020.13
2022-10-19T19:16:16.657Z,101024.09
2022-10-19T19:18:42.916Z,101016.63
2022-10-19T19:21:23.456Z,101022.22
2022-10-19T19:23:51.406Z,101030.63
2022-10-19T19:26:18.067Z,101031.28
2022-10-19T19:28:47.631Z,101017.53
2022-10-19T19:31:19.147Z,101025.81
2022-10-19T19:33:46.084Z,101032.44
2022-10-19T19:36:14.481Z,101042.03
2022-10-19T19:38:41.062Z,101036.59
2022-10-19T19:41:09.372Z,101042.50
2022-10-19T19:43:37.328Z,101043.13
2022-10-19T19:46:08.865Z,101019.28
2022-10-19T19:48:36.434Z,101051.16
2022-10-19T19:51:02.700Z,101046.78
2022-10-19T19:53:29.363Z,101038.69
2022-10-19T19:55:55.619Z,101050.84
2022-10-19T19:58:21.885Z,101057.84
2022-10-19T20:00:48.400Z,101062.47
2022-10-19T20:03:15.829Z,101064.72
2022-10-19T20:05:42.169Z,101045.44
2022-10-19T20:08:08.737Z,101063.63
2022-10-19T20:10:39.823Z,101063.87
2022-10-19T20:13:06.071Z,101069.97
2022-10-19T20:15:32.401Z,101068.69
2022-10-19T20:17:58.940Z,101076.69
2022-10-19T20:20:25.179Z,101057.53
2022-10-19T20:22:51.407Z,101089.06
2022-10-19T20:25:17.906Z,101088.31
2022-10-19T20:27:44.155Z,101092.25
2022-10-19T20:30:11.086Z,101097.94
2022-10-19T20:32:38.317Z,101077.81
2022-10-19T20:35:05.338Z,101065.47
2022-10-19T20:37:32.345Z,101087.03
2022-10-19T20:39:58.991Z,101070.47
2022-10-19T20:42:25.275Z,101093.66
2022-10-19T20:44:51.490Z,101095.22
2022-10-19T20:47:18.006Z,101105.00
2022-10-19T20:49:44.244Z,101101.66
2022-10-19T20:52:10.507Z,101076.28
2022-10-19T20:54:37.171Z,101095.13
2022-10-19T20:57:03.465Z,101097.97
2022-10-19T20:59:31.430Z,101118.69
2022-10-19T21:01:58.048Z,101124.13
2022-10-19T21:04:25.598Z,101120.69
2022-10-19T21:06:52.243Z,101105.09
2022-10-19T21:09:22.735Z,101124.06
2022-10-19T21:11:50.391Z,101125.50
2022-10-19T21:14:18.024Z,101125.53
2022-10-19T21:16:44.970Z,101120.59
2022-10-19T21:19:14.661Z,101121.50
2022-10-19T21:21:44.177Z,101128.19
2022-10-19T21:24:18.547Z,101135.59
2022-10-19T21:26:45.310Z,101129.44
2022-10-19T21:29:12.953Z,101142.25
2022-10-19T21:31:43.001Z,101130.69
2022-10-19T21:34:14.523Z,101112.31
2022-10-19T21:36:40.777Z,101141.16
2022-10-19T21:39:07.033Z,101125.19
2022-10-19T21:41:33.554Z,101125.97
2022-10-19T21:44:00.316Z,101135.25
2022-10-19T21:46:26.734Z,101120.53
2022-10-19T21:48:54.595Z,101122.47
2022-10-19T21:51:36.954Z,101129.22
2022-10-19T21:54:05.148Z,101136.62
2022-10-19T21:56:32.690Z,101140.00
2022-10-19T21:58:59.115Z,101144.47
2022-10-19T22:01:28.567Z,101152.63
2022-10-19T22:03:59.727Z,101159.72
2022-10-19T22:06:28.021Z,101151.44
2022-10-19T22:08:55.327Z,101154.19
2022-10-19T22:11:22.106Z,101148.69
2022-10-19T22:13:48.404Z,101163.66
2022-10-19T22:16:20.430Z,101161.75
2022-10-19T22:18:47.880Z,101150.53
2022-10-19T22:21:16.905Z,101150.09
2022-10-19T22:23:44.819Z,101164.38
2022-10-19T22:26:15.408Z,101141.19
2022-10-19T22:28:42.117Z,101169.53
2022-10-19T22:31:09.040Z,101175.47
2022-10-19T22:33:35.629Z,101176.63
2022-10-19T22:36:02.619Z,101187.38
2022-10-19T22:38:29.612Z,101186.19
2022-10-19T22:40:55.818Z,101196.19
2022-10-19T22:43:22.047Z,101184.44
2022-10-19T22:45:49.792Z,101182.06
2022-10-19T22:48:19.437Z,101182.75
2022-10-19T22:50:45.909Z,101179.22
2022-10-19T22:53:12.791Z,101184.72
2022-10-19T22:55:39.292Z,101171.63
2022-10-19T22:58:06.742Z,101189.75
2022-10-19T23:00:33.315Z,101178.31
2022-10-19T23:02:59.577Z,101185.22
2022-10-19T23:05:25.787Z,101169.22
2022-10-19T23:07:52.333Z,101186.47
2022-10-19T23:10:18.878Z,101186.56
2022-10-19T23:12:49.089Z,101189.44
2022-10-19T23:15:15.653Z,101196.63
2022-10-19T23:17:41.891Z,101198.63
2022-10-19T23:20:08.634Z,101191.81
2022-10-19T23:22:35.155Z,101190.09
2022-10-19T23:25:01.414Z,101186.34
2022-10-19T23:27:27.625Z,101203.59
2022-10-19T23:29:54.152Z,101195.78
2022-10-19T23:32:20.373Z,101198.59
2022-10-19T23:34:48.431Z,101200.34
2022-10-19T23:37:15.252Z,101198.59
2022-10-19T23:39:41.881Z,101196.25
2022-10-19T23:42:08.148Z,101192.78
2022-10-19T23:44:34.707Z,101185.19
2022-10-19T23:47:00.972Z,101195.59
2022-10-19T23:49:27.193Z,101182.19
2022-10-19T23:51:53.984Z,101203.81
2022-10-19T23:54:20.224Z,101197.22
2022-10-19T23:56:46.480Z,101189.00
2022-10-19T23:59:12.998Z,101215.38
